createdAt,value
2023-05-04T00:00:08.322Z,4.30
2023-05-04T00:02:56.971Z,6.30
2023-05-04T00:05:25.769Z,3.40
2023-05-04T00:07:54.215Z,3.20
2023-05-04T00:10:22.802Z,2.90
2023-05-04T00:12:51.401Z,3.80
2023-05-04T00:15:20.168Z,2.40
2023-05-04T00:17:48.892Z,2.10
2023-05-04T00:20:17.516Z,5.60
2023-05-04T00:22:46.036Z,4.00
2023-05-04T00:25:14.496Z,2.20
2023-05-04T00:27:43.020Z,2.50
2023-05-04T00:30:11.862Z,3.90
2023-05-04T00:32:40.426Z,2.90
2023-05-04T00:35:09.506Z,2.80
2023-05-04T00:37:38.159Z,2.70
2023-05-04T00:40:09.235Z,2.20
2023-05-04T00:42:37.878Z,2.00
2023-05-04T00:45:07.530Z,3.30
2023-05-04T00:47:36.541Z,6.20
2023-05-04T00:50:06.000Z,1.80
2023-05-04T00:52:36.384Z,3.40
2023-05-04T00:55:06.074Z,5.80
2023-05-04T00:57:34.637Z,3.00
2023-05-04T01:00:04.182Z,12.20
2023-05-04T01:02:33.186Z,4.70
2023-05-04T01:05:03.003Z,4.00
2023-05-04T01:08:02.351Z,5.50
2023-05-04T01:10:42.246Z,3.60
2023-05-04T01:13:16.818Z,2.40
2023-05-04T01:15:46.755Z,2.80
2023-05-04T01:18:16.655Z,3.20
2023-05-04T01:20:45.322Z,3.60
2023-05-04T01:23:13.908Z,4.00
2023-05-04T01:26:14.476Z,2.50
2023-05-04T01:29:18.455Z,4.90
2023-05-04T01:31:47.339Z,3.20
2023-05-04T01:34:17.391Z,2.30
2023-05-04T01:36:46.411Z,4.30
2023-05-04T01:39:16.142Z,3.70
2023-05-04T01:41:44.630Z,10.30
2023-05-04T01:44:13.313Z,6.30
2023-05-04T01:46:42.232Z,4.60
2023-05-04T01:49:10.866Z,4.80
2023-05-04T01:51:39.359Z,4.00
2023-05-04T01:54:07.904Z,4.20
2023-05-04T01:56:36.772Z,6.40
2023-05-04T01:59:05.358Z,3.30
2023-05-04T02:01:33.928Z,3.30
2023-05-04T02:04:02.794Z,4.30
2023-05-04T02:06:31.824Z,2.80
2023-05-04T02:09:00.372Z,4.20
2023-05-04T02:11:28.915Z,2.80
2023-05-04T02:13:57.491Z,4.40
2023-05-04T02:16:26.228Z,8.50
2023-05-04T02:18:54.787Z,4.10
2023-05-04T02:21:23.477Z,4.20
2023-05-04T02:23:52.063Z,5.20
2023-05-04T02:26:20.702Z,9.10
2023-05-04T02:28:49.336Z,9.30
2023-05-04T02:31:17.871Z,4.40
2023-05-04T02:33:46.403Z,8.00
2023-05-04T02:36:16.441Z,3.10
2023-05-04T02:38:45.502Z,5.80
2023-05-04T02:41:13.957Z,5.50
2023-05-04T02:43:42.516Z,3.70
2023-05-04T02:46:11.110Z,5.60
2023-05-04T02:48:39.714Z,8.50
2023-05-04T02:51:08.197Z,9.40
2023-05-04T02:53:36.727Z,5.10
2023-05-04T02:56:05.732Z,6.60
2023-05-04T02:58:34.322Z,7.00
2023-05-04T03:01:03.073Z,4.30
2023-05-04T03:03:31.609Z,11.80
2023-05-04T03:06:01.424Z,10.40
2023-05-04T03:08:31.043Z,6.70
2023-05-04T03:10:59.906Z,6.80
2023-05-04T03:13:28.398Z,7.70
2023-05-04T03:15:57.065Z,4.80
2023-05-04T03:18:26.202Z,6.90
2023-05-04T03:20:56.437Z,5.80
2023-05-04T03:23:25.377Z,12.50
2023-05-04T03:25:53.990Z,9.80
2023-05-04T03:28:22.792Z,12.40
2023-05-04T03:30:51.821Z,12.90
2023-05-04T03:33:20.754Z,6.60
2023-05-04T03:35:49.405Z,6.40
2023-05-04T03:38:18.060Z,8.30
2023-05-04T03:40:46.608Z,10.80
2023-05-04T03:43:18.531Z,9.60
2023-05-04T03:45:47.270Z,8.50
2023-05-04T03:48:15.876Z,6.70
2023-05-04T03:50:45.769Z,10.00
2023-05-04T03:53:14.442Z,5.60
2023-05-04T03:55:43.672Z,9.40
2023-05-04T03:58:12.739Z,11.20
2023-05-04T04:00:41.802Z,13.10
2023-05-04T04:03:13.079Z,13.10
2023-05-04T04:05:41.890Z,8.60
2023-05-04T04:08:10.610Z,10.10
2023-05-04T04:10:39.505Z,13.50
2023-05-04T04:13:08.275Z,10.60
2023-05-04T04:15:36.822Z,6.40
2023-05-04T04:18:05.937Z,11.00
2023-05-04T04:20:34.872Z,8.30
2023-05-04T04:23:04.242Z,8.30
2023-05-04T04:25:32.906Z,12.30
2023-05-04T04:28:01.768Z,7.40
2023-05-04T04:30:30.264Z,6.90
2023-05-04T04:32:59.016Z,11.80
2023-05-04T04:35:27.673Z,6.90
2023-05-04T04:37:56.408Z,8.60
2023-05-04T04:40:25.320Z,10.30
2023-05-04T04:42:53.913Z,11.20
2023-05-04T04:45:22.645Z,17.50
2023-05-04T04:47:51.515Z,6.90
2023-05-04T04:50:20.160Z,8.40
2023-05-04T04:52:48.819Z,11.30
2023-05-04T04:55:18.252Z,13.90
2023-05-04T04:57:47.044Z,7.40
2023-05-04T05:00:17.050Z,13.30
2023-05-04T05:02:45.995Z,10.20
2023-05-04T05:05:14.622Z,12.00
2023-05-04T05:07:43.261Z,8.70
2023-05-04T05:10:12.602Z,13.00
2023-05-04T05:12:41.682Z,19.60
2023-05-04T05:15:10.826Z,17.30
2023-05-04T05:17:39.501Z,10.30
2023-05-04T05:20:12.169Z,11.60
2023-05-04T05:22:41.782Z,13.00
2023-05-04T05:25:12.412Z,17.70
2023-05-04T05:27:41.305Z,12.70
2023-05-04T05:30:11.553Z,12.70
2023-05-04T05:32:40.159Z,4.70
2023-05-04T05:35:09.564Z,5.90
2023-05-04T05:37:38.112Z,35.60
2023-05-04T05:40:10.950Z,14.00
2023-05-04T05:42:39.571Z,6.90
2023-05-04T05:45:10.634Z,6.60
2023-05-04T05:47:39.347Z,10.60
2023-05-04T05:50:08.827Z,10.00
2023-05-04T05:52:37.280Z,11.10
2023-05-04T05:55:06.345Z,4.80
2023-05-04T05:57:35.083Z,4.90
2023-05-04T06:00:05.549Z,4.80
2023-05-04T06:02:40.721Z,9.10
2023-05-04T06:05:10.594Z,7.10
2023-05-04T06:07:39.156Z,5.10
2023-05-04T06:10:09.085Z,5.20
2023-05-04T06:12:37.835Z,9.20
2023-05-04T06:15:09.436Z,17.50
2023-05-04T06:17:37.950Z,13.40
2023-05-04T06:20:08.663Z,8.50
2023-05-04T06:22:37.703Z,8.60
2023-05-04T06:25:08.125Z,14.00
2023-05-04T06:27:37.679Z,5.50
2023-05-04T06:30:08.476Z,12.60
2023-05-04T06:32:37.788Z,6.50
2023-05-04T06:35:09.846Z,6.70
2023-05-04T06:37:38.618Z,7.50
2023-05-04T06:40:08.436Z,4.20
2023-05-04T06:42:37.487Z,10.70
2023-05-04T06:45:07.093Z,4.60
2023-05-04T06:47:37.793Z,5.70
2023-05-04T06:50:12.002Z,8.90
2023-05-04T06:52:42.876Z,9.00
2023-05-04T06:55:11.512Z,10.80
2023-05-04T06:57:40.061Z,5.20
2023-05-04T07:00:09.950Z,10.40
2023-05-04T07:02:38.584Z,6.40
2023-05-04T07:05:07.776Z,10.20
2023-05-04T07:07:36.439Z,6.80
2023-05-04T07:10:05.695Z,6.50
2023-05-04T07:12:34.533Z,5.70
2023-05-04T07:15:03.760Z,5.10
2023-05-04T07:17:33.053Z,6.40
2023-05-04T07:20:03.915Z,7.80
2023-05-04T07:22:33.824Z,6.30
2023-05-04T07:25:03.324Z,7.70
2023-05-04T07:27:31.997Z,13.10
2023-05-04T07:30:03.359Z,13.00
2023-05-04T07:32:33.032Z,8.10
2023-05-04T07:35:01.913Z,5.10
2023-05-04T07:37:30.727Z,6.70
2023-05-04T07:40:06.302Z,4.20
2023-05-04T07:42:36.199Z,7.30
2023-05-04T07:45:05.137Z,7.50
2023-05-04T07:47:34.156Z,5.80
2023-05-04T07:50:04.516Z,6.10
2023-05-04T07:52:33.613Z,8.40
2023-05-04T07:55:03.257Z,6.20
2023-05-04T07:57:32.624Z,7.30
2023-05-04T08:00:02.048Z,5.20
2023-05-04T08:02:42.690Z,8.80
2023-05-04T08:05:11.999Z,7.70
2023-05-04T08:07:40.596Z,7.10
2023-05-04T08:10:10.163Z,7.50
2023-05-04T08:12:41.280Z,6.70
2023-05-04T08:15:10.682Z,11.30
2023-05-04T08:17:40.780Z,7.10
2023-05-04T08:20:10.463Z,10.60
2023-05-04T08:22:39.300Z,14.60
2023-05-04T08:25:09.748Z,7.60
2023-05-04T08:27:39.881Z,7.30
2023-05-04T08:30:10.361Z,8.00
2023-05-04T08:32:39.097Z,7.00
2023-05-04T08:35:08.126Z,5.40
2023-05-04T08:37:36.890Z,7.40
2023-05-04T08:40:06.454Z,7.60
2023-05-04T08:42:35.078Z,10.00
2023-05-04T08:45:04.224Z,9.40
2023-05-04T08:47:33.216Z,7.70
2023-05-04T08:50:02.101Z,5.60
2023-05-04T08:52:31.599Z,4.50
2023-05-04T08:55:00.453Z,9.00
2023-05-04T08:57:30.330Z,7.10
2023-05-04T09:00:01.554Z,8.80
2023-05-04T09:02:31.499Z,9.60
2023-05-04T09:05:02.053Z,6.70
2023-05-04T09:07:31.673Z,8.00
2023-05-04T09:10:01.499Z,8.90
2023-05-04T09:12:30.309Z,6.50
2023-05-04T09:14:59.689Z,9.30
2023-05-04T09:17:29.748Z,5.50
2023-05-04T09:20:04.134Z,5.20
2023-05-04T09:22:33.650Z,6.50
2023-05-04T09:25:14.160Z,7.00
2023-05-04T09:27:54.804Z,4.60
2023-05-04T09:30:23.737Z,7.50
2023-05-04T09:32:53.191Z,6.90
2023-05-04T09:35:33.737Z,6.80
2023-05-04T09:38:03.431Z,9.10
2023-05-04T09:40:43.125Z,8.60
2023-05-04T09:43:13.766Z,5.20
2023-05-04T09:45:45.343Z,7.70
2023-05-04T09:48:27.004Z,7.90
2023-05-04T09:51:06.490Z,10.60
2023-05-04T09:53:40.563Z,4.20
2023-05-04T09:56:18.223Z,5.60
2023-05-04T09:58:50.393Z,6.40
2023-05-04T10:03:48.298Z,4.90
2023-05-04T10:06:18.201Z,4.50
2023-05-04T10:08:49.328Z,4.10
2023-05-04T10:11:21.376Z,4.00
2023-05-04T10:13:50.171Z,8.20
2023-05-04T10:16:26.290Z,7.50
2023-05-04T10:19:09.395Z,3.50
2023-05-04T10:22:16.787Z,9.40
2023-05-04T10:25:11.896Z,7.70
2023-05-04T10:27:55.092Z,7.10
2023-05-04T10:30:24.267Z,5.60
2023-05-04T10:32:58.271Z,4.60
2023-05-04T10:35:28.260Z,3.90
2023-05-04T10:37:57.669Z,5.80
2023-05-04T10:40:39.936Z,5.80
2023-05-04T10:43:09.464Z,6.70
2023-05-04T10:45:42.889Z,6.80
2023-05-04T10:48:11.828Z,8.30
2023-05-04T10:50:50.570Z,7.30
2023-05-04T10:53:19.383Z,6.70
2023-05-04T10:55:49.194Z,5.70
2023-05-04T10:58:29.464Z,5.90
2023-05-04T11:00:58.162Z,5.00
2023-05-04T11:03:28.294Z,6.00
2023-05-04T11:05:57.200Z,5.60
2023-05-04T11:08:27.358Z,6.20
2023-05-04T11:11:07.655Z,6.40
2023-05-04T11:13:44.861Z,5.50
2023-05-04T11:16:14.826Z,5.90
2023-05-04T11:18:45.185Z,4.60
2023-05-04T11:21:23.397Z,5.30
2023-05-04T11:24:00.190Z,4.70
2023-05-04T11:26:29.076Z,4.90
2023-05-04T11:28:57.768Z,3.40
2023-05-04T11:31:27.357Z,14.20
2023-05-04T11:33:56.180Z,5.30
2023-05-04T11:36:25.035Z,6.20
2023-05-04T11:38:57.795Z,3.70
2023-05-04T11:41:27.427Z,3.40
2023-05-04T11:43:56.241Z,6.80
2023-05-04T11:46:26.386Z,3.50
2023-05-04T11:48:55.189Z,3.10
2023-05-04T11:51:29.436Z,4.90
2023-05-04T11:54:01.209Z,7.50
2023-05-04T11:56:29.996Z,4.90
2023-05-04T11:59:10.915Z,4.80
2023-05-04T12:01:39.748Z,7.30
2023-05-04T12:04:08.809Z,4.50
2023-05-04T12:06:38.944Z,4.40
2023-05-04T12:09:07.821Z,5.00
2023-05-04T12:11:38.654Z,4.60
2023-05-04T12:14:10.352Z,2.50
2023-05-04T12:16:40.012Z,3.30
2023-05-04T12:19:12.994Z,2.20
2023-05-04T12:21:53.579Z,2.00
2023-05-04T12:24:23.822Z,3.50
2023-05-04T12:26:52.982Z,2.00
2023-05-04T12:29:23.242Z,2.80
2023-05-04T12:31:52.080Z,2.50
2023-05-04T12:34:20.800Z,1.70
2023-05-04T12:36:51.534Z,1.90
2023-05-04T12:39:21.144Z,5.10
2023-05-04T12:41:49.913Z,7.70
2023-05-04T12:44:19.229Z,7.00
2023-05-04T12:46:47.936Z,2.20
2023-05-04T12:49:16.916Z,2.90
2023-05-04T12:51:46.113Z,2.40
2023-05-04T12:54:14.917Z,1.60
2023-05-04T12:56:43.781Z,3.00
2023-05-04T12:59:12.278Z,1.70
2023-05-04T13:01:43.490Z,3.00
2023-05-04T13:04:12.296Z,2.80
2023-05-04T13:06:41.070Z,5.90
2023-05-04T13:09:10.986Z,6.20
2023-05-04T13:11:39.679Z,2.20
2023-05-04T13:14:08.523Z,9.30
2023-05-04T13:16:37.183Z,4.10
2023-05-04T13:19:06.038Z,5.40
2023-05-04T13:21:34.688Z,3.50
2023-05-04T13:24:03.378Z,2.50
2023-05-04T13:26:32.389Z,2.90
2023-05-04T13:29:03.582Z,5.80
2023-05-04T13:31:32.358Z,4.40
2023-05-04T13:34:01.108Z,6.40
2023-05-04T13:36:29.874Z,2.80
2023-05-04T13:38:58.611Z,27.60
2023-05-04T13:41:27.421Z,11.90
2023-05-04T13:43:56.224Z,3.70
2023-05-04T13:46:24.997Z,2.10
2023-05-04T13:48:55.757Z,3.80
2023-05-04T13:51:25.998Z,3.30
2023-05-04T13:53:54.613Z,6.60
2023-05-04T13:56:23.470Z,7.50
2023-05-04T13:58:53.438Z,2.90
2023-05-04T14:01:23.794Z,4.40
2023-05-04T14:03:54.274Z,3.40
2023-05-04T14:06:23.328Z,6.60
2023-05-04T14:08:52.081Z,4.30
2023-05-04T14:11:20.831Z,3.70
2023-05-04T14:13:49.580Z,5.90
2023-05-04T14:16:18.462Z,7.20
2023-05-04T14:18:47.872Z,7.00
2023-05-04T14:21:16.590Z,5.00
2023-05-04T14:23:46.457Z,3.70
2023-05-04T14:26:15.169Z,4.90
2023-05-04T14:28:43.883Z,4.40
2023-05-04T14:31:12.765Z,7.60
2023-05-04T14:33:42.479Z,5.20
2023-05-04T14:36:11.995Z,4.20
2023-05-04T14:38:40.772Z,5.40
2023-05-04T14:41:10.446Z,3.80
2023-05-04T14:43:39.203Z,11.60
2023-05-04T14:46:09.424Z,3.60
2023-05-04T14:48:38.558Z,3.40
2023-05-04T14:51:07.285Z,2.80
2023-05-04T14:53:39.312Z,3.30
2023-05-04T14:56:08.562Z,4.00
2023-05-04T14:58:37.359Z,3.40
2023-05-04T15:01:06.294Z,4.90
2023-05-04T15:03:35.289Z,1.90
2023-05-04T15:06:04.241Z,4.40
2023-05-04T15:08:32.956Z,4.40
2023-05-04T15:11:01.645Z,2.80
2023-05-04T15:13:30.375Z,2.10
2023-05-04T15:15:59.138Z,7.50
2023-05-04T15:18:27.981Z,3.40
2023-05-04T15:20:56.768Z,2.90
2023-05-04T15:23:25.599Z,3.00
2023-05-04T15:25:54.225Z,2.70
2023-05-04T15:28:23.106Z,4.50
2023-05-04T15:31:09.342Z,2.30
2023-05-04T15:33:38.337Z,2.20
2023-05-04T15:36:09.195Z,2.60
2023-05-04T15:38:38.027Z,6.60
2023-05-04T15:41:07.515Z,4.10
2023-05-04T15:43:36.262Z,3.10
2023-05-04T15:46:05.064Z,2.30
2023-05-04T15:48:33.872Z,2.70
2023-05-04T15:51:02.844Z,3.60
2023-05-04T15:53:31.688Z,7.70
2023-05-04T15:56:00.881Z,6.50
2023-05-04T15:58:29.714Z,5.40
2023-05-04T16:01:00.175Z,3.90
2023-05-04T16:03:29.981Z,5.50
2023-05-04T16:05:58.916Z,3.40
2023-05-04T16:08:28.132Z,3.60
2023-05-04T16:10:57.798Z,3.60
2023-05-04T16:13:26.691Z,3.60
2023-05-04T16:15:55.259Z,2.90
2023-05-04T16:18:23.899Z,5.00
2023-05-04T16:20:54.764Z,6.40
2023-05-04T16:23:23.661Z,7.60
2023-05-04T16:25:52.899Z,7.10
2023-05-04T16:28:21.824Z,3.10
2023-05-04T16:30:50.703Z,2.80
2023-05-04T16:33:20.013Z,3.70
2023-05-04T16:35:48.807Z,4.40
2023-05-04T16:38:19.626Z,3.60
2023-05-04T16:40:48.355Z,5.10
2023-05-04T16:43:17.181Z,5.20
2023-05-04T16:45:45.850Z,3.50
2023-05-04T16:48:15.108Z,4.00
2023-05-04T16:50:47.372Z,6.10
2023-05-04T16:56:26.931Z,6.60
2023-05-04T16:58:58.400Z,5.20
2023-05-04T17:01:27.130Z,4.20
2023-05-04T17:03:56.000Z,3.50
2023-05-04T17:06:24.820Z,4.20
2023-05-04T17:08:53.369Z,4.70
2023-05-04T17:11:24.049Z,3.80
2023-05-04T17:13:53.370Z,4.90
2023-05-04T17:16:22.073Z,7.20
2023-05-04T17:18:50.902Z,4.20
2023-05-04T17:21:20.001Z,7.10
2023-05-04T17:23:50.456Z,7.10
2023-05-04T17:26:20.043Z,5.30
2023-05-04T17:28:48.722Z,7.10
2023-05-04T17:31:17.354Z,6.80
2023-05-04T17:33:46.648Z,3.20
2023-05-04T17:36:15.336Z,9.20
2023-05-04T17:38:44.033Z,5.70
2023-05-04T17:41:13.376Z,6.70
2023-05-04T17:43:42.290Z,6.00
2023-05-04T17:46:10.855Z,8.30
2023-05-04T17:48:45.071Z,9.00
2023-05-04T17:51:14.352Z,10.60
2023-05-04T17:53:43.206Z,8.90
2023-05-04T17:56:12.789Z,7.40
2023-05-04T17:58:41.632Z,9.60
2023-05-04T18:01:10.646Z,6.80
2023-05-04T18:03:39.577Z,10.50
2023-05-04T18:06:08.746Z,7.80
2023-05-04T18:08:37.937Z,6.80
2023-05-04T18:11:06.793Z,8.10
2023-05-04T18:13:35.973Z,10.60
2023-05-04T18:16:05.335Z,6.30
2023-05-04T18:18:34.291Z,7.60
2023-05-04T18:21:03.015Z,5.90
2023-05-04T18:23:32.322Z,4.70
2023-05-04T18:26:01.128Z,4.90
2023-05-04T18:28:30.304Z,4.10
2023-05-04T18:30:59.211Z,9.80
2023-05-04T18:33:30.312Z,4.90
2023-05-04T18:35:59.089Z,4.50
2023-05-04T18:38:27.844Z,6.50
2023-05-04T18:40:58.107Z,5.30
2023-05-04T18:43:26.898Z,4.30
2023-05-04T18:45:56.352Z,4.00
2023-05-04T18:50:57.418Z,5.90
2023-05-04T18:53:29.417Z,9.70
2023-05-04T18:56:09.670Z,7.00
2023-05-04T18:58:39.146Z,7.20
2023-05-04T19:01:08.102Z,11.50
2023-05-04T19:03:37.008Z,8.80
2023-05-04T19:06:06.169Z,10.30
2023-05-04T19:08:34.932Z,8.80
2023-05-04T19:11:04.010Z,7.30
2023-05-04T19:13:32.636Z,10.40
2023-05-04T19:16:01.333Z,13.30
2023-05-04T19:18:30.423Z,11.40
2023-05-04T19:21:04.814Z,12.20
2023-05-04T19:23:34.403Z,8.50
2023-05-04T19:26:04.352Z,10.70
2023-05-04T19:28:33.073Z,8.40
2023-05-04T19:31:02.227Z,6.60
2023-05-04T19:33:44.592Z,16.60
2023-05-04T19:36:17.338Z,14.00
2023-05-04T19:38:46.219Z,15.10
2023-05-04T19:41:15.331Z,11.10
2023-05-04T19:43:44.664Z,8.80
2023-05-04T19:46:13.389Z,12.50
2023-05-04T19:48:42.748Z,10.20
2023-05-04T19:51:11.903Z,15.00
2023-05-04T19:53:40.830Z,11.50
2023-05-04T19:56:09.395Z,14.70
2023-05-04T19:58:38.790Z,10.20
2023-05-04T20:01:07.839Z,13.40
2023-05-04T20:03:36.638Z,15.10
2023-05-04T20:06:05.410Z,12.20
2023-05-04T20:08:34.105Z,17.60
2023-05-04T20:11:02.787Z,13.30
2023-05-04T20:13:31.445Z,16.40
2023-05-04T20:16:01.941Z,7.50
2023-05-04T20:18:30.770Z,14.00
2023-05-04T20:20:59.580Z,13.60
2023-05-04T20:23:28.352Z,14.10
2023-05-04T20:25:57.111Z,12.00
2023-05-04T20:28:25.756Z,13.40
2023-05-04T20:30:54.418Z,17.80
2023-05-04T20:33:23.240Z,19.00
2023-05-04T20:35:51.948Z,18.60
2023-05-04T20:38:20.801Z,17.00
2023-05-04T20:40:50.426Z,10.60
2023-05-04T20:43:20.988Z,17.50
2023-05-04T20:45:49.800Z,12.80
2023-05-04T20:48:18.367Z,12.80
2023-05-04T20:53:45.687Z,17.10
2023-05-04T20:56:14.938Z,13.00
2023-05-04T20:58:43.606Z,16.20
2023-05-04T21:01:12.289Z,14.80
2023-05-04T21:03:41.048Z,14.50
2023-05-04T21:06:09.800Z,14.60
2023-05-04T21:08:39.283Z,11.20
2023-05-04T21:11:07.912Z,15.10
2023-05-04T21:13:36.594Z,18.00
2023-05-04T21:16:05.596Z,14.40
2023-05-04T21:18:35.917Z,13.70
2023-05-04T21:21:05.117Z,15.70
2023-05-04T21:23:33.769Z,13.60
2023-05-04T21:26:04.041Z,14.90
2023-05-04T21:28:32.750Z,10.40
2023-05-04T21:31:01.432Z,10.50
2023-05-04T21:33:29.997Z,13.10
2023-05-04T21:35:58.571Z,15.40
2023-05-04T21:38:27.390Z,9.50
2023-05-04T21:40:56.130Z,16.40
2023-05-04T21:43:25.120Z,12.00
2023-05-04T21:45:53.809Z,13.20
2023-05-04T21:48:22.681Z,9.70
2023-05-04T21:50:51.651Z,14.50
2023-05-04T21:53:20.251Z,14.30
2023-05-04T21:55:48.824Z,15.30
2023-05-04T21:58:17.642Z,11.60
2023-05-04T22:00:46.262Z,11.60
2023-05-04T22:03:14.924Z,14.30
2023-05-04T22:05:52.847Z,14.00
2023-05-04T22:08:22.571Z,15.10
2023-05-04T22:10:57.048Z,18.10
2023-05-04T22:13:26.259Z,16.40
2023-05-04T22:15:55.145Z,17.20
2023-05-04T22:18:23.961Z,18.60
2023-05-04T22:20:52.911Z,14.50
2023-05-04T22:23:21.789Z,20.40
2023-05-04T22:25:50.525Z,24.70
2023-05-04T22:28:19.306Z,32.10
2023-05-04T22:30:48.065Z,31.90
2023-05-04T22:33:16.766Z,30.10
2023-05-04T22:35:45.398Z,30.50
2023-05-04T22:38:14.881Z,30.80
2023-05-04T22:40:43.826Z,30.30
2023-05-04T22:43:12.512Z,23.70
2023-05-04T22:45:41.258Z,17.40
2023-05-04T22:48:09.941Z,17.90
2023-05-04T22:50:39.304Z,21.60
2023-05-04T22:53:08.483Z,25.40
2023-05-04T22:55:37.411Z,26.00
2023-05-04T22:58:06.178Z,27.70
2023-05-04T23:00:35.150Z,27.80
2023-05-04T23:03:04.110Z,26.50
2023-05-04T23:05:33.346Z,22.40
2023-05-04T23:08:02.084Z,22.50
2023-05-04T23:10:30.626Z,25.00
2023-05-04T23:12:59.382Z,20.20
2023-05-04T23:15:28.203Z,15.60
2023-05-04T23:17:56.956Z,19.50
2023-05-04T23:20:25.976Z,17.30
2023-05-04T23:22:54.578Z,16.40
2023-05-04T23:25:23.258Z,13.70
2023-05-04T23:27:51.990Z,14.40
2023-05-04T23:30:20.725Z,14.60
2023-05-04T23:32:49.504Z,18.70
2023-05-04T23:35:18.237Z,11.50
2023-05-04T23:37:47.190Z,14.50
2023-05-04T23:40:15.824Z,13.60
2023-05-04T23:42:44.563Z,16.70
2023-05-04T23:45:13.351Z,13.80
2023-05-04T23:47:42.097Z,18.40
2023-05-04T23:50:11.781Z,13.00
2023-05-04T23:52:40.346Z,15.70
2023-05-04T23:58:38.225Z,14.90
